MiSS Sydney — WDH2300 — position and weather

sailwx.info

Track history (hours):
 
Tides and Currents Weather Stations Pressure Air Temp Water Temp Dewpoint Dewpoint Depression Visibility Wind Speed Wind Dir Waves Ship Positions

MiSS Sydney

Owner: Broussard Brothers, Inc., Abbeville, LA. More information available from US FCC via Universal Licensing System and Coast Guard Vessel Documentation Center.

Last reported at 2018-Jun-21 17:30 UTC. Time now 2018-Jun-21 17:37 UTC.
Position N 29°47' W 092°11'.

Length 21 m; draft 2.5 m.

Type: Towing. MMSI: 367596190.

Date/timePositionNaut miles runAvg speedWind from/ knotsBaromVisibWave heightAir tempDewpointWater temp
2018-Jun-21 17:30N 29°47' W 092°11'0 0.0
2018-Jun-21 17:00N 29°47' W 092°11'0 0.0
2018-Jun-21 16:30N 29°47' W 092°11'0 0.0
2018-Jun-21 15:59N 29°47' W 092°11'0 0.0
2018-Jun-21 15:30N 29°47' W 092°11'0 0.0
2018-Jun-21 15:00N 29°47' W 092°11'0 0.0
2018-Jun-21 14:30N 29°47' W 092°11'0 0.0
2018-Jun-21 14:00N 29°47' W 092°11'0 0.0
2018-Jun-21 13:30N 29°47' W 092°11'0 0.0
2018-Jun-21 13:00N 29°47' W 092°11'0 0.0
2018-Jun-21 12:30N 29°47' W 092°11'0 0.0
2018-Jun-21 12:00N 29°47' W 092°11'0 0.0
2018-Jun-21 11:30N 29°47' W 092°11'0 0.0
2018-Jun-21 11:00N 29°47' W 092°11'0 0.0
2018-Jun-21 10:29N 29°47' W 092°11'0 0.0
2018-Jun-21 10:00N 29°47' W 092°11'0 0.0
2018-Jun-21 09:30N 29°47' W 092°11'0 0.0
2018-Jun-21 09:00N 29°47' W 092°11'0 0.0
2018-Jun-21 08:29N 29°47' W 092°11'1 2.1
2018-Jun-21 08:00N 29°47' W 092°12'1 1.8
2018-Jun-21 07:30N 29°47' W 092°13'0 0.1
2018-Jun-21 07:01N 29°47' W 092°13'2 4.0
2018-Jun-21 06:30N 29°48' W 092°15'2 4.5
2018-Jun-21 06:00N 29°46' W 092°16'3 5.7
2018-Jun-21 05:30N 29°45' W 092°19'3 6.0
2018-Jun-21 05:00N 29°44' W 092°22'0 0.8
2018-Jun-21 04:25N 29°44' W 092°22'0 0.0
2018-Jun-21 03:19N 29°44' W 092°23'0 0.0
2018-Jun-21 02:54N 29°44' W 092°23'0 0.0
2018-Jun-21 01:50N 29°44' W 092°23'0 0.0
2018-Jun-21 01:17N 29°44' W 092°22'0 0.0
2018-Jun-21 01:00N 29°44' W 092°22'0 0.0
2018-Jun-21 00:30N 29°44' W 092°22'0 0.6
2018-Jun-21 00:00N 29°44' W 092°22'1 2.9
2018-Jun-20 23:30N 29°45' W 092°21'2 5.0
2018-Jun-20 23:00N 29°45' W 092°18'2 3.8
2018-Jun-20 22:30N 29°46' W 092°16'2 3.4
2018-Jun-20 22:00N 29°47' W 092°16'1 2.4
2018-Jun-20 21:30N 29°48' W 092°14'2 3.9
2018-Jun-20 21:00N 29°47' W 092°12'0 0.7
2018-Jun-20 20:30N 29°47' W 092°12'1 1.4
2018-Jun-20 20:00N 29°47' W 092°11'0 0.1
2018-Jun-20 19:30N 29°47' W 092°11'0 0.0
2018-Jun-20 19:00N 29°47' W 092°11'0 0.0
2018-Jun-20 18:30N 29°47' W 092°11'0 0.0
2018-Jun-20 18:00N 29°47' W 092°11'0 0.0
2018-Jun-20 17:29N 29°47' W 092°11'0 0.0
2018-Jun-20 17:00N 29°47' W 092°11'0 0.0
2018-Jun-20 16:30N 29°47' W 092°11'0 0.0
2018-Jun-20 16:00N 29°47' W 092°11'0 0.0
2018-Jun-20 15:30N 29°47' W 092°11'0 0.0
2018-Jun-20 15:00N 29°47' W 092°11'0 0.0
2018-Jun-20 14:30N 29°47' W 092°11'0 0.0
2018-Jun-20 13:59N 29°47' W 092°11'0 0.0
2018-Jun-20 13:30N 29°47' W 092°11'0 0.0
2018-Jun-20 13:00N 29°47' W 092°11'0 0.0
2018-Jun-20 12:30N 29°47' W 092°11'0 0.0
2018-Jun-20 12:00N 29°47' W 092°11'1 1.4
2018-Jun-20 11:30N 29°47' W 092°11'0 0.1
2018-Jun-20 11:00N 29°47' W 092°11'0 0.0
2018-Jun-20 10:30N 29°47' W 092°11'0 0.0
2018-Jun-20 10:00N 29°47' W 092°11'0 0.0
2018-Jun-20 09:30N 29°47' W 092°11'0 0.0
2018-Jun-20 09:00N 29°47' W 092°11'0 0.4
2018-Jun-20 08:30N 29°47' W 092°10'2 3.4
2018-Jun-20 08:00N 29°47' W 092°08'2 3.8
2018-Jun-20 07:29N 29°48' W 092°06'2 3.8
2018-Jun-20 06:55N 29°48' W 092°04'9 0.3
2018-Jun-19 02:20N 29°51' W 091°54'3 7.9
2018-Jun-19 02:01N 29°50' W 091°57'4 7.7
2018-Jun-19 01:31N 29°49' W 092°02'4 7.1
2018-Jun-19 01:00N 29°48' W 092°05'3 6.7
2018-Jun-19 00:30N 29°47' W 092°09'2 3.7
2018-Jun-19 00:01N 29°47' W 092°11'0 0.0
2018-Jun-18 23:30N 29°47' W 092°11'0 0.0
2018-Jun-18 23:00N 29°47' W 092°11'0 0.0
2018-Jun-18 22:30N 29°47' W 092°11'0 0.0
2018-Jun-18 22:00N 29°47' W 092°11'0 0.0
2018-Jun-18 21:30N 29°47' W 092°11'0 0.0
2018-Jun-18 21:01N 29°47' W 092°11'0 0.0
2018-Jun-18 20:31N 29°47' W 092°11'0 0.0
2018-Jun-18 20:01N 29°47' W 092°11'1 1.8
2018-Jun-18 19:31N 29°47' W 092°10'0 0.1
2018-Jun-18 19:01N 29°47' W 092°10'0 0.2
2018-Jun-18 18:31N 29°47' W 092°10'1 1.8
2018-Jun-18 18:01N 29°47' W 092°11'0 0.0
2018-Jun-18 17:31N 29°47' W 092°11'0 0.0
2018-Jun-18 17:00N 29°47' W 092°11'0 0.0
2018-Jun-18 16:31N 29°47' W 092°11'0 0.0
2018-Jun-18 16:01N 29°47' W 092°11'0 0.0
2018-Jun-18 15:31N 29°47' W 092°11'0 0.0
2018-Jun-18 15:01N 29°47' W 092°11'0 0.0
2018-Jun-18 14:31N 29°47' W 092°11'0 0.0
2018-Jun-18 13:59N 29°47' W 092°11'0 0.0
2018-Jun-18 13:31N 29°47' W 092°11'0 0.0
2018-Jun-18 13:01N 29°47' W 092°11'0 0.0
2018-Jun-18 12:30N 29°47' W 092°11'0 0.0
2018-Jun-18 12:01N 29°47' W 092°11'0 0.0
2018-Jun-18 11:31N 29°47' W 092°11'0 0.0
2018-Jun-18 11:01N 29°47' W 092°11'0 0.0
2018-Jun-18 10:31N 29°47' W 092°11'0 0.0
2018-Jun-18 10:01N 29°47' W 092°11'0 0.0
2018-Jun-18 09:31N 29°47' W 092°11'0 0.0
2018-Jun-18 09:01N 29°47' W 092°11'0 0.0
2018-Jun-18 08:31N 29°47' W 092°11'0 0.0
2018-Jun-18 08:01N 29°47' W 092°11'0 0.0
2018-Jun-18 07:31N 29°47' W 092°11'0 0.0
2018-Jun-18 07:01N 29°47' W 092°11'0 0.0
2018-Jun-18 06:31N 29°47' W 092°11'0 0.0
2018-Jun-18 06:00N 29°47' W 092°11'0 0.0
2018-Jun-18 05:31N 29°47' W 092°11'0 0.0
2018-Jun-18 05:01N 29°47' W 092°11'0 0.0
2018-Jun-18 04:31N 29°47' W 092°11'0 0.0
2018-Jun-18 04:01N 29°47' W 092°11'0 0.0
2018-Jun-18 03:31N 29°47' W 092°11'0 0.0
2018-Jun-18 03:01N 29°47' W 092°11'0 0.0
2018-Jun-18 02:31N 29°47' W 092°11'0 0.0
2018-Jun-18 02:01N 29°47' W 092°11'0 0.0
2018-Jun-18 01:31N 29°47' W 092°11'0 0.0
2018-Jun-18 01:01N 29°47' W 092°11'0 0.0
2018-Jun-18 00:29N 29°47' W 092°11'0 0.0
2018-Jun-18 00:00N 29°47' W 092°11'0 0.0
2018-Jun-17 23:30N 29°47' W 092°11'0 0.0
2018-Jun-17 23:01N 29°47' W 092°11'0 0.0
2018-Jun-17 22:31N 29°47' W 092°11'0 0.0
2018-Jun-17 22:01N 29°47' W 092°11'0 0.0
2018-Jun-17 21:28N 29°47' W 092°11'0 0.0
2018-Jun-17 21:01N 29°47' W 092°11'0 0.0
2018-Jun-17 20:31N 29°47' W 092°11'0 0.0
2018-Jun-17 20:01N 29°47' W 092°11'0 0.0
2018-Jun-17 19:31N 29°47' W 092°11'0 0.0
2018-Jun-17 19:01N 29°47' W 092°11'0 0.0
2018-Jun-17 18:31N 29°47' W 092°11'0 0.0
2018-Jun-17 18:01N 29°47' W 092°11'0 0.0
2018-Jun-17 17:31N 29°47' W 092°11'0 0.0
2018-Jun-17 17:01N 29°47' W 092°11'0 0.0
2018-Jun-17 16:31N 29°47' W 092°11'0 0.0
2018-Jun-17 16:01N 29°47' W 092°11'1 1.2
2018-Jun-17 15:30N 29°47' W 092°11'2 3.4
2018-Jun-17 15:01N 29°47' W 092°09'1 2.9
2018-Jun-17 14:31N 29°48' W 092°08'1 1.8
2018-Jun-17 14:01N 29°49' W 092°08'3 5.4
2018-Jun-17 13:31N 29°47' W 092°09'2 3.2
2018-Jun-17 13:01N 29°47' W 092°11'0 0.0
2018-Jun-17 12:31N 29°47' W 092°11'0 0.0
2018-Jun-17 12:01N 29°47' W 092°11'0 0.0
2018-Jun-17 11:30N 29°47' W 092°11'0 0.2
2018-Jun-17 11:01N 29°47' W 092°11'0 0.0
2018-Jun-17 10:31N 29°47' W 092°11'0 0.0
2018-Jun-17 10:01N 29°47' W 092°11'0 0.0
2018-Jun-17 09:30N 29°47' W 092°11'0 0.0
2018-Jun-17 08:59N 29°47' W 092°11'0 0.0
2018-Jun-17 08:26N 29°47' W 092°11'0 0.0
2018-Jun-17 08:01N 29°47' W 092°11'0 0.0
2018-Jun-17 07:30N 29°47' W 092°11'0 0.0
2018-Jun-17 07:00N 29°47' W 092°11'0 0.0
2018-Jun-17 06:31N 29°47' W 092°11'0 0.0
2018-Jun-17 06:00N 29°47' W 092°11'0 0.0
2018-Jun-17 05:29N 29°47' W 092°11'0 0.0
2018-Jun-17 04:55N 29°47' W 092°11'0 0.0
2018-Jun-17 04:31N 29°47' W 092°11'0 0.0
2018-Jun-17 04:01N 29°47' W 092°11'0 0.0
2018-Jun-17 03:31N 29°47' W 092°11'0 0.0
2018-Jun-17 02:59N 29°47' W 092°11'0 0.0
2018-Jun-17 02:31N 29°47' W 092°11'0 0.0
2018-Jun-17 02:00N 29°47' W 092°11'0 0.0
2018-Jun-17 01:31N 29°47' W 092°11'0 0.0
2018-Jun-17 01:00N 29°47' W 092°11'0 0.0
2018-Jun-17 00:31N 29°47' W 092°11'0 0.0
2018-Jun-17 00:01N 29°47' W 092°11'0 0.0
2018-Jun-16 23:31N 29°47' W 092°11'0 0.0
2018-Jun-16 22:56N 29°47' W 092°11'0 0.0
2018-Jun-16 22:27N 29°47' W 092°11'0 0.0
2018-Jun-16 22:01N 29°47' W 092°11'0 0.0
2018-Jun-16 21:30N 29°47' W 092°11'0 0.0
2018-Jun-16 21:01N 29°47' W 092°11'0 0.6
2018-Jun-16 20:31N 29°47' W 092°11'3 6.0
2018-Jun-16 20:01N 29°45' W 092°13'3 6.5
2018-Jun-16 19:31N 29°42' W 092°15'7 1.0
2018-Jun-16 12:09N 29°35' W 092°18'1 6.2
2018-Jun-16 12:00N 29°36' W 092°18'3 5.6
2018-Jun-16 11:31N 29°38' W 092°16'3 5.4
2018-Jun-16 11:01N 29°41' W 092°15'3 5.3
2018-Jun-16 10:31N 29°44' W 092°15'3 5.3
2018-Jun-16 10:00N 29°45' W 092°12'2 4.4
2018-Jun-16 09:30N 29°47' W 092°10'0 0.0
2018-Jun-16 09:01N 29°47' W 092°10'0 0.0
2018-Jun-16 08:30N 29°47' W 092°10'0 0.0
2018-Jun-16 08:01N 29°47' W 092°10'0 0.0
2018-Jun-16 07:31N 29°47' W 092°10'0 0.0
2018-Jun-16 07:01N 29°47' W 092°10'0 0.0
2018-Jun-16 06:31N 29°47' W 092°10'0 0.0
2018-Jun-16 06:01N 29°47' W 092°10'0 0.0
2018-Jun-16 05:31N 29°47' W 092°10'0 0.0
2018-Jun-16 05:01N 29°47' W 092°10'0 0.0
2018-Jun-16 04:31N 29°47' W 092°10'0 0.0
2018-Jun-16 04:01N 29°47' W 092°10'0 0.0
2018-Jun-16 03:31N 29°47' W 092°10'0 0.0
2018-Jun-16 03:01N 29°47' W 092°10'0 0.0
2018-Jun-16 02:31N 29°47' W 092°10'2 4.3
2018-Jun-16 02:00N 29°47' W 092°08'3 6.6
2018-Jun-16 01:30N 29°48' W 092°04'4 6.5
2018-Jun-16 00:54N 29°50' W 092°00'5 0.7
2018-Jun-15 18:23N 29°51' W 091°55'3 7.3
2018-Jun-15 18:01N 29°50' W 091°58'4 7.5
2018-Jun-15 17:30N 29°49' W 092°02'4 7.9
2018-Jun-15 17:01N 29°48' W 092°06'4 7.2
2018-Jun-15 16:30N 29°47' W 092°10'1 2.0
2018-Jun-15 16:01N 29°47' W 092°09'3 6.2
2018-Jun-15 15:31N 29°48' W 092°06'10 2.3
2018-Jun-15 11:03N 29°51' W 091°54'0 7.1
2018-Jun-15 11:00N 29°51' W 091°55'4 7.3
2018-Jun-15 10:31N 29°50' W 091°59'4 7.3
2018-Jun-15 10:00N 29°49' W 092°03'4 7.5
2018-Jun-15 09:31N 29°48' W 092°07'4 7.3
2018-Jun-15 09:00N 29°47' W 092°11'0 0.5
2018-Jun-15 08:31N 29°47' W 092°11'0 0.0
2018-Jun-15 08:01N 29°47' W 092°11'0 0.0
2018-Jun-15 07:31N 29°47' W 092°11'0 0.0
2018-Jun-15 07:01N 29°47' W 092°11'0 0.0
2018-Jun-15 06:31N 29°47' W 092°11'0 0.0
2018-Jun-15 06:01N 29°47' W 092°11'0 0.0
2018-Jun-15 05:31N 29°47' W 092°11'0 0.0
2018-Jun-15 05:01N 29°47' W 092°11'0 0.0
2018-Jun-15 04:31N 29°47' W 092°11'0 0.0
2018-Jun-15 04:01N 29°47' W 092°11'0 0.0
2018-Jun-15 03:31N 29°47' W 092°11'0 0.0
2018-Jun-15 03:01N 29°47' W 092°11'0 0.0
2018-Jun-15 02:31N 29°47' W 092°11'0 0.0
2018-Jun-15 02:01N 29°47' W 092°11'0 0.0
2018-Jun-15 01:30N 29°47' W 092°11'0 0.0
2018-Jun-15 01:00N 29°47' W 092°11'0 0.0
2018-Jun-15 00:31N 29°47' W 092°11'0 0.0
2018-Jun-15 00:01N 29°47' W 092°11'0 0.0
2018-Jun-14 23:31N 29°47' W 092°11'0 0.0
2018-Jun-14 23:01N 29°47' W 092°11'0 0.0
2018-Jun-14 22:31N 29°47' W 092°11'0 0.0
2018-Jun-14 22:01N 29°47' W 092°11'0 0.0
2018-Jun-14 21:31N 29°47' W 092°11'0 0.0
2018-Jun-14 21:01N 29°47' W 092°11'0 0.0
2018-Jun-14 20:30N 29°47' W 092°11'0 0.0
2018-Jun-14 20:01N 29°47' W 092°11'0 0.0
2018-Jun-14 19:31N 29°47' W 092°11'0 0.0
2018-Jun-14 19:01N 29°47' W 092°11'0 0.0
2018-Jun-14 18:31N 29°47' W 092°11'0 0.0
2018-Jun-14 18:00N 29°47' W 092°11'0 0.0
2018-Jun-14 17:31N 29°47' W 092°11'0 0.0
2018-Jun-14 17:01N 29°47' W 092°11'0 0.0
2018-Jun-14 16:31N 29°47' W 092°11'0 0.0
2018-Jun-14 16:01N 29°47' W 092°11'0 0.0
2018-Jun-14 15:31N 29°47' W 092°11'0 0.0
2018-Jun-14 15:01N 29°47' W 092°11'0 0.0
2018-Jun-14 14:31N 29°47' W 092°11'0 0.0
2018-Jun-14 14:01N 29°47' W 092°11'1 1.2
2018-Jun-14 13:31N 29°47' W 092°11'0 0.5
2018-Jun-14 13:00N 29°47' W 092°10'1 1.7
2018-Jun-14 12:30N 29°47' W 092°11'0 0.0
2018-Jun-14 12:00N 29°47' W 092°11'0 0.0
2018-Jun-14 11:30N 29°47' W 092°11'0 0.0
2018-Jun-14 10:58N 29°47' W 092°11'0 0.0
2018-Jun-14 10:29N 29°47' W 092°11'0 0.0
2018-Jun-14 10:01N 29°47' W 092°11'0 0.0
2018-Jun-14 09:30N 29°47' W 092°11'0 0.0
2018-Jun-14 08:59N 29°47' W 092°11'0 0.0
2018-Jun-14 08:30N 29°47' W 092°11'0 0.0
2018-Jun-14 08:00N 29°47' W 092°11'0 0.0
2018-Jun-14 07:30N 29°47' W 092°11'0 0.0
2018-Jun-14 07:00N 29°47' W 092°11'0 0.0
2018-Jun-14 06:26N 29°47' W 092°11'0 0.0
2018-Jun-14 06:00N 29°47' W 092°11'0 0.0
2018-Jun-14 05:30N 29°47' W 092°11'0 0.0
2018-Jun-14 05:00N 29°47' W 092°11'0 0.0
2018-Jun-14 04:31N 29°47' W 092°11'0 0.0
2018-Jun-14 04:01N 29°47' W 092°11'0 0.0
2018-Jun-14 03:28N 29°47' W 092°11'0 0.0
2018-Jun-14 03:00N 29°47' W 092°11'0 0.0
2018-Jun-14 02:31N 29°47' W 092°11'0 0.0
2018-Jun-14 02:01N 29°47' W 092°11'0 0.0
2018-Jun-14 01:31N 29°47' W 092°11'0 0.0
2018-Jun-14 00:59N 29°47' W 092°11'0 0.0
2018-Jun-14 00:31N 29°47' W 092°11'0 0.0
2018-Jun-14 00:01N 29°47' W 092°11'2 3.4
2018-Jun-13 23:31N 29°47' W 092°09'3 5.2
2018-Jun-13 23:01N 29°49' W 092°08'2 3.5
2018-Jun-13 22:30N 29°48' W 092°08'2 4.0
2018-Jun-13 22:00N 29°47' W 092°10'1 1.5
2018-Jun-13 21:31N 29°47' W 092°11'0 0.0
2018-Jun-13 21:00N 29°47' W 092°11'0 0.0
2018-Jun-13 20:31N 29°47' W 092°11'0 0.0
2018-Jun-13 20:00N 29°47' W 092°11'0 0.0
2018-Jun-13 19:31N 29°47' W 092°11'0 0.0
2018-Jun-13 19:00N 29°47' W 092°11'0 0.5
2018-Jun-13 18:31N 29°47' W 092°11'0 0.8
2018-Jun-13 18:00N 29°47' W 092°11'1 1.2
2018-Jun-13 17:31N 29°47' W 092°11'0 0.0
2018-Jun-13 17:01N 29°47' W 092°11'0 0.0
2018-Jun-13 16:31N 29°47' W 092°11'0 0.0
2018-Jun-13 16:01N 29°47' W 092°11'0 0.0
2018-Jun-13 15:31N 29°47' W 092°11'0 0.0
2018-Jun-13 15:01N 29°47' W 092°11'0 0.0
2018-Jun-13 14:31N 29°47' W 092°11'0 0.0
2018-Jun-13 14:00N 29°47' W 092°11'0 0.0
2018-Jun-13 13:30N 29°47' W 092°11'0 0.0
2018-Jun-13 12:59N 29°47' W 092°11'0 0.0
2018-Jun-13 12:30N 29°47' W 092°11'0 0.0
2018-Jun-13 11:59N 29°47' W 092°11'0 0.0
2018-Jun-13 11:31N 29°47' W 092°11'0 0.0
2018-Jun-13 11:01N 29°47' W 092°11'0 0.0
2018-Jun-13 10:31N 29°47' W 092°11'0 0.0
2018-Jun-13 10:01N 29°47' W 092°11'0 0.0
2018-Jun-13 09:31N 29°47' W 092°11'0 0.0
2018-Jun-13 09:01N 29°47' W 092°11'0 0.0
2018-Jun-13 08:30N 29°47' W 092°11'0 0.0
2018-Jun-13 08:00N 29°47' W 092°11'0 0.0
2018-Jun-13 07:31N 29°47' W 092°11'0 0.0
2018-Jun-13 07:00N 29°47' W 092°11'0 0.0
2018-Jun-13 06:31N 29°47' W 092°11'0 0.0
2018-Jun-13 06:00N 29°47' W 092°11'0 0.0
2018-Jun-13 05:30N 29°47' W 092°11'0 0.0
2018-Jun-13 05:01N 29°47' W 092°11'0 0.0
2018-Jun-13 04:31N 29°47' W 092°11'0 0.0
2018-Jun-13 04:00N 29°47' W 092°11'0 0.0
2018-Jun-13 03:29N 29°47' W 092°11'0 0.0
2018-Jun-13 03:01N 29°47' W 092°11'0 0.0
2018-Jun-13 02:29N 29°47' W 092°11'0 0.0
2018-Jun-13 02:01N 29°47' W 092°11'0 0.0
2018-Jun-13 01:30N 29°47' W 092°11'0 0.0
2018-Jun-13 01:00N 29°47' W 092°11'0 0.0
2018-Jun-13 00:31N 29°47' W 092°11'0 0.0
2018-Jun-13 00:00N 29°47' W 092°11'0 0.0
2018-Jun-12 23:31N 29°47' W 092°11'0 0.2
2018-Jun-12 23:00N 29°47' W 092°11'0 0.1
2018-Jun-12 22:27N 29°47' W 092°11'0 0.0
2018-Jun-12 22:00N 29°47' W 092°11'0 0.0
2018-Jun-12 21:31N 29°47' W 092°11'0 0.0
2018-Jun-12 21:00N 29°47' W 092°11'1 1.5
2018-Jun-12 20:30N 29°47' W 092°10'0 0.3
2018-Jun-12 20:01N 29°47' W 092°10'1 1.4
2018-Jun-12 19:30N 29°47' W 092°11'0 0.9
2018-Jun-12 19:00N 29°47' W 092°11'0 0.5
2018-Jun-12 18:30N 29°47' W 092°10'1 1.5
2018-Jun-12 18:01N 29°47' W 092°11'0 0.0
2018-Jun-12 17:30N 29°47' W 092°11'0 0.0
2018-Jun-12 17:00N 29°47' W 092°11'0 0.0
2018-Jun-12 16:31N 29°47' W 092°11'0 0.0
2018-Jun-12 15:59N 29°47' W 092°11'1 1.9
2018-Jun-12 15:30N 29°47' W 092°10'0 0.3
2018-Jun-12 15:00N 29°47' W 092°10'0 0.1
2018-Jun-12 14:31N 29°47' W 092°10'3 6.6
2018-Jun-12 14:00N 29°45' W 092°13'1 1.9
2018-Jun-12 13:30N 29°44' W 092°14'4 7.0
2018-Jun-12 13:00N 29°46' W 092°11'1 1.7
2018-Jun-12 12:31N 29°47' W 092°10'0 0.0
2018-Jun-12 12:01N 29°47' W 092°10'0 0.0
2018-Jun-12 11:30N 29°47' W 092°10'0 0.0
2018-Jun-12 11:01N 29°47' W 092°10'0 0.0
2018-Jun-12 10:30N 29°47' W 092°10'0 0.0
2018-Jun-12 10:00N 29°47' W 092°10'0 0.0
2018-Jun-12 09:31N 29°47' W 092°10'0 0.0
2018-Jun-12 09:01N 29°47' W 092°10'0 0.0
2018-Jun-12 08:31N 29°47' W 092°10'0 0.0
2018-Jun-12 08:01N 29°47' W 092°10'0 0.0
2018-Jun-12 07:31N 29°47' W 092°10'0 0.0
2018-Jun-12 07:01N 29°47' W 092°10'0 0.0
2018-Jun-12 06:31N 29°47' W 092°10'0 0.0
2018-Jun-12 06:00N 29°47' W 092°10'0 0.0
2018-Jun-12 05:31N 29°47' W 092°10'0 0.0
2018-Jun-12 05:01N 29°47' W 092°10'0 0.0
2018-Jun-12 04:31N 29°47' W 092°10'0 0.0
2018-Jun-12 04:00N 29°47' W 092°10'0 0.0
2018-Jun-12 03:31N 29°47' W 092°10'0 0.0
2018-Jun-12 03:01N 29°47' W 092°10'0 0.0
2018-Jun-12 02:30N 29°47' W 092°10'0 0.0
2018-Jun-12 02:01N 29°47' W 092°10'0 0.0
2018-Jun-12 01:31N 29°47' W 092°10'0 0.0
2018-Jun-12 01:00N 29°47' W 092°10'0 0.0
2018-Jun-12 00:31N 29°47' W 092°10'0 0.0
2018-Jun-12 00:01N 29°47' W 092°10'0 0.0
2018-Jun-11 23:31N 29°47' W 092°10'0 0.0
2018-Jun-11 23:01N 29°47' W 092°10'0 0.5
2018-Jun-11 22:30N 29°47' W 092°11'0 0.5
2018-Jun-11 22:01N 29°47' W 092°10'0 0.0
2018-Jun-11 21:30N 29°47' W 092°10'0 0.0
2018-Jun-11 21:00N 29°47' W 092°10'0 0.0
2018-Jun-11 20:30N 29°47' W 092°10'0 0.0
2018-Jun-11 20:01N 29°47' W 092°10'0 0.0
2018-Jun-11 19:31N 29°47' W 092°10'0 0.0
2018-Jun-11 19:01N 29°47' W 092°10'0 0.0
2018-Jun-11 18:31N 29°47' W 092°10'0 0.0
2018-Jun-11 18:00N 29°47' W 092°10'0 0.0
2018-Jun-11 17:31N 29°47' W 092°10'  
Track history (hours):
 
Tides and Currents Weather Stations Pressure Air Temp Water Temp Dewpoint Dewpoint Depression Visibility Wind Speed Wind Dir Waves Ship Positions

MiSS Sydney

Owner: Broussard Brothers, Inc., Abbeville, LA. More information available from US FCC via Universal Licensing System and Coast Guard Vessel Documentation Center.

Last reported at 2018-Jun-21 17:30 UTC. Time now 2018-Jun-21 17:37 UTC.
Position N 29°47' W 092°11'.

Length 21 m; draft 2.5 m.

Type: Towing. MMSI: 367596190.

Date/timePositionNaut miles runAvg speedWind from/ knotsBaromVisibWave heightAir tempDewpointWater temp
2018-Jun-21 17:30N 29°47' W 092°11'0 0.0
2018-Jun-21 17:00N 29°47' W 092°11'0 0.0
2018-Jun-21 16:30N 29°47' W 092°11'0 0.0
2018-Jun-21 15:59N 29°47' W 092°11'0 0.0
2018-Jun-21 15:30N 29°47' W 092°11'0 0.0
2018-Jun-21 15:00N 29°47' W 092°11'0 0.0
2018-Jun-21 14:30N 29°47' W 092°11'0 0.0
2018-Jun-21 14:00N 29°47' W 092°11'0 0.0
2018-Jun-21 13:30N 29°47' W 092°11'0 0.0
2018-Jun-21 13:00N 29°47' W 092°11'0 0.0
2018-Jun-21 12:30N 29°47' W 092°11'0 0.0
2018-Jun-21 12:00N 29°47' W 092°11'0 0.0
2018-Jun-21 11:30N 29°47' W 092°11'0 0.0
2018-Jun-21 11:00N 29°47' W 092°11'0 0.0
2018-Jun-21 10:29N 29°47' W 092°11'0 0.0
2018-Jun-21 10:00N 29°47' W 092°11'0 0.0
2018-Jun-21 09:30N 29°47' W 092°11'0 0.0
2018-Jun-21 09:00N 29°47' W 092°11'0 0.0
2018-Jun-21 08:29N 29°47' W 092°11'1 2.1
2018-Jun-21 08:00N 29°47' W 092°12'1 1.8
2018-Jun-21 07:30N 29°47' W 092°13'0 0.1
2018-Jun-21 07:01N 29°47' W 092°13'2 4.0
2018-Jun-21 06:30N 29°48' W 092°15'2 4.5
2018-Jun-21 06:00N 29°46' W 092°16'3 5.7
2018-Jun-21 05:30N 29°45' W 092°19'3 6.0
2018-Jun-21 05:00N 29°44' W 092°22'0 0.8
2018-Jun-21 04:25N 29°44' W 092°22'0 0.0
2018-Jun-21 03:19N 29°44' W 092°23'0 0.0
2018-Jun-21 02:54N 29°44' W 092°23'0 0.0
2018-Jun-21 01:50N 29°44' W 092°23'0 0.0
2018-Jun-21 01:17N 29°44' W 092°22'0 0.0
2018-Jun-21 01:00N 29°44' W 092°22'0 0.0
2018-Jun-21 00:30N 29°44' W 092°22'0 0.6
2018-Jun-21 00:00N 29°44' W 092°22'1 2.9
2018-Jun-20 23:30N 29°45' W 092°21'2 5.0
2018-Jun-20 23:00N 29°45' W 092°18'2 3.8
2018-Jun-20 22:30N 29°46' W 092°16'2 3.4
2018-Jun-20 22:00N 29°47' W 092°16'1 2.4
2018-Jun-20 21:30N 29°48' W 092°14'2 3.9
2018-Jun-20 21:00N 29°47' W 092°12'0 0.7
2018-Jun-20 20:30N 29°47' W 092°12'1 1.4
2018-Jun-20 20:00N 29°47' W 092°11'0 0.1
2018-Jun-20 19:30N 29°47' W 092°11'0 0.0
2018-Jun-20 19:00N 29°47' W 092°11'0 0.0
2018-Jun-20 18:30N 29°47' W 092°11'0 0.0
2018-Jun-20 18:00N 29°47' W 092°11'0 0.0
2018-Jun-20 17:29N 29°47' W 092°11'0 0.0
2018-Jun-20 17:00N 29°47' W 092°11'0 0.0
2018-Jun-20 16:30N 29°47' W 092°11'0 0.0
2018-Jun-20 16:00N 29°47' W 092°11'0 0.0
2018-Jun-20 15:30N 29°47' W 092°11'0 0.0
2018-Jun-20 15:00N 29°47' W 092°11'0 0.0
2018-Jun-20 14:30N 29°47' W 092°11'0 0.0
2018-Jun-20 13:59N 29°47' W 092°11'0 0.0
2018-Jun-20 13:30N 29°47' W 092°11'0 0.0
2018-Jun-20 13:00N 29°47' W 092°11'0 0.0
2018-Jun-20 12:30N 29°47' W 092°11'0 0.0
2018-Jun-20 12:00N 29°47' W 092°11'1 1.4
2018-Jun-20 11:30N 29°47' W 092°11'0 0.1
2018-Jun-20 11:00N 29°47' W 092°11'0 0.0
2018-Jun-20 10:30N 29°47' W 092°11'0 0.0
2018-Jun-20 10:00N 29°47' W 092°11'0 0.0
2018-Jun-20 09:30N 29°47' W 092°11'0 0.0
2018-Jun-20 09:00N 29°47' W 092°11'0 0.4
2018-Jun-20 08:30N 29°47' W 092°10'2 3.4
2018-Jun-20 08:00N 29°47' W 092°08'2 3.8
2018-Jun-20 07:29N 29°48' W 092°06'2 3.8
2018-Jun-20 06:55N 29°48' W 092°04'9 0.3
2018-Jun-19 02:20N 29°51' W 091°54'3 7.9
2018-Jun-19 02:01N 29°50' W 091°57'4 7.7
2018-Jun-19 01:31N 29°49' W 092°02'4 7.1
2018-Jun-19 01:00N 29°48' W 092°05'3 6.7
2018-Jun-19 00:30N 29°47' W 092°09'2 3.7
2018-Jun-19 00:01N 29°47' W 092°11'0 0.0
2018-Jun-18 23:30N 29°47' W 092°11'0 0.0
2018-Jun-18 23:00N 29°47' W 092°11'0 0.0
2018-Jun-18 22:30N 29°47' W 092°11'0 0.0
2018-Jun-18 22:00N 29°47' W 092°11'0 0.0
2018-Jun-18 21:30N 29°47' W 092°11'0 0.0
2018-Jun-18 21:01N 29°47' W 092°11'0 0.0
2018-Jun-18 20:31N 29°47' W 092°11'0 0.0
2018-Jun-18 20:01N 29°47' W 092°11'1 1.8
2018-Jun-18 19:31N 29°47' W 092°10'0 0.1
2018-Jun-18 19:01N 29°47' W 092°10'0 0.2
2018-Jun-18 18:31N 29°47' W 092°10'1 1.8
2018-Jun-18 18:01N 29°47' W 092°11'0 0.0
2018-Jun-18 17:31N 29°47' W 092°11'0 0.0
2018-Jun-18 17:00N 29°47' W 092°11'0 0.0
2018-Jun-18 16:31N 29°47' W 092°11'0 0.0
2018-Jun-18 16:01N 29°47' W 092°11'0 0.0
2018-Jun-18 15:31N 29°47' W 092°11'0 0.0
2018-Jun-18 15:01N 29°47' W 092°11'0 0.0
2018-Jun-18 14:31N 29°47' W 092°11'0 0.0
2018-Jun-18 13:59N 29°47' W 092°11'0 0.0
2018-Jun-18 13:31N 29°47' W 092°11'0 0.0
2018-Jun-18 13:01N 29°47' W 092°11'0 0.0
2018-Jun-18 12:30N 29°47' W 092°11'0 0.0
2018-Jun-18 12:01N 29°47' W 092°11'0 0.0
2018-Jun-18 11:31N 29°47' W 092°11'0 0.0
2018-Jun-18 11:01N 29°47' W 092°11'0 0.0
2018-Jun-18 10:31N 29°47' W 092°11'0 0.0
2018-Jun-18 10:01N 29°47' W 092°11'0 0.0
2018-Jun-18 09:31N 29°47' W 092°11'0 0.0
2018-Jun-18 09:01N 29°47' W 092°11'0 0.0
2018-Jun-18 08:31N 29°47' W 092°11'0 0.0
2018-Jun-18 08:01N 29°47' W 092°11'0 0.0
2018-Jun-18 07:31N 29°47' W 092°11'0 0.0
2018-Jun-18 07:01N 29°47' W 092°11'0 0.0
2018-Jun-18 06:31N 29°47' W 092°11'0 0.0
2018-Jun-18 06:00N 29°47' W 092°11'0 0.0
2018-Jun-18 05:31N 29°47' W 092°11'0 0.0
2018-Jun-18 05:01N 29°47' W 092°11'0 0.0
2018-Jun-18 04:31N 29°47' W 092°11'0 0.0
2018-Jun-18 04:01N 29°47' W 092°11'0 0.0
2018-Jun-18 03:31N 29°47' W 092°11'0 0.0
2018-Jun-18 03:01N 29°47' W 092°11'0 0.0
2018-Jun-18 02:31N 29°47' W 092°11'0 0.0
2018-Jun-18 02:01N 29°47' W 092°11'0 0.0
2018-Jun-18 01:31N 29°47' W 092°11'0 0.0
2018-Jun-18 01:01N 29°47' W 092°11'0 0.0
2018-Jun-18 00:29N 29°47' W 092°11'0 0.0
2018-Jun-18 00:00N 29°47' W 092°11'0 0.0
2018-Jun-17 23:30N 29°47' W 092°11'0 0.0
2018-Jun-17 23:01N 29°47' W 092°11'0 0.0
2018-Jun-17 22:31N 29°47' W 092°11'0 0.0
2018-Jun-17 22:01N 29°47' W 092°11'0 0.0
2018-Jun-17 21:28N 29°47' W 092°11'0 0.0
2018-Jun-17 21:01N 29°47' W 092°11'0 0.0
2018-Jun-17 20:31N 29°47' W 092°11'0 0.0
2018-Jun-17 20:01N 29°47' W 092°11'0 0.0
2018-Jun-17 19:31N 29°47' W 092°11'0 0.0
2018-Jun-17 19:01N 29°47' W 092°11'0 0.0
2018-Jun-17 18:31N 29°47' W 092°11'0 0.0
2018-Jun-17 18:01N 29°47' W 092°11'0 0.0
2018-Jun-17 17:31N 29°47' W 092°11'0 0.0
2018-Jun-17 17:01N 29°47' W 092°11'0 0.0
2018-Jun-17 16:31N 29°47' W 092°11'0 0.0
2018-Jun-17 16:01N 29°47' W 092°11'1 1.2
2018-Jun-17 15:30N 29°47' W 092°11'2 3.4
2018-Jun-17 15:01N 29°47' W 092°09'1 2.9
2018-Jun-17 14:31N 29°48' W 092°08'1 1.8
2018-Jun-17 14:01N 29°49' W 092°08'3 5.4
2018-Jun-17 13:31N 29°47' W 092°09'2 3.2
2018-Jun-17 13:01N 29°47' W 092°11'0 0.0
2018-Jun-17 12:31N 29°47' W 092°11'0 0.0
2018-Jun-17 12:01N 29°47' W 092°11'0 0.0
2018-Jun-17 11:30N 29°47' W 092°11'0 0.2
2018-Jun-17 11:01N 29°47' W 092°11'0 0.0
2018-Jun-17 10:31N 29°47' W 092°11'0 0.0
2018-Jun-17 10:01N 29°47' W 092°11'0 0.0
2018-Jun-17 09:30N 29°47' W 092°11'0 0.0
2018-Jun-17 08:59N 29°47' W 092°11'0 0.0
2018-Jun-17 08:26N 29°47' W 092°11'0 0.0
2018-Jun-17 08:01N 29°47' W 092°11'0 0.0
2018-Jun-17 07:30N 29°47' W 092°11'0 0.0
2018-Jun-17 07:00N 29°47' W 092°11'0 0.0
2018-Jun-17 06:31N 29°47' W 092°11'0 0.0
2018-Jun-17 06:00N 29°47' W 092°11'0 0.0
2018-Jun-17 05:29N 29°47' W 092°11'0 0.0
2018-Jun-17 04:55N 29°47' W 092°11'0 0.0
2018-Jun-17 04:31N 29°47' W 092°11'0 0.0
2018-Jun-17 04:01N 29°47' W 092°11'0 0.0
2018-Jun-17 03:31N 29°47' W 092°11'0 0.0
2018-Jun-17 02:59N 29°47' W 092°11'0 0.0
2018-Jun-17 02:31N 29°47' W 092°11'0 0.0
2018-Jun-17 02:00N 29°47' W 092°11'0 0.0
2018-Jun-17 01:31N 29°47' W 092°11'0 0.0
2018-Jun-17 01:00N 29°47' W 092°11'0 0.0
2018-Jun-17 00:31N 29°47' W 092°11'0 0.0
2018-Jun-17 00:01N 29°47' W 092°11'0 0.0
2018-Jun-16 23:31N 29°47' W 092°11'0 0.0
2018-Jun-16 22:56N 29°47' W 092°11'0 0.0
2018-Jun-16 22:27N 29°47' W 092°11'0 0.0
2018-Jun-16 22:01N 29°47' W 092°11'0 0.0
2018-Jun-16 21:30N 29°47' W 092°11'0 0.0
2018-Jun-16 21:01N 29°47' W 092°11'0 0.6
2018-Jun-16 20:31N 29°47' W 092°11'3 6.0
2018-Jun-16 20:01N 29°45' W 092°13'3 6.5
2018-Jun-16 19:31N 29°42' W 092°15'7 1.0
2018-Jun-16 12:09N 29°35' W 092°18'1 6.2
2018-Jun-16 12:00N 29°36' W 092°18'3 5.6
2018-Jun-16 11:31N 29°38' W 092°16'3 5.4
2018-Jun-16 11:01N 29°41' W 092°15'3 5.3
2018-Jun-16 10:31N 29°44' W 092°15'3 5.3
2018-Jun-16 10:00N 29°45' W 092°12'2 4.4
2018-Jun-16 09:30N 29°47' W 092°10'0 0.0
2018-Jun-16 09:01N 29°47' W 092°10'0 0.0
2018-Jun-16 08:30N 29°47' W 092°10'0 0.0
2018-Jun-16 08:01N 29°47' W 092°10'0 0.0
2018-Jun-16 07:31N 29°47' W 092°10'0 0.0
2018-Jun-16 07:01N 29°47' W 092°10'0 0.0
2018-Jun-16 06:31N 29°47' W 092°10'0 0.0
2018-Jun-16 06:01N 29°47' W 092°10'0 0.0
2018-Jun-16 05:31N 29°47' W 092°10'0 0.0
2018-Jun-16 05:01N 29°47' W 092°10'0 0.0
2018-Jun-16 04:31N 29°47' W 092°10'0 0.0
2018-Jun-16 04:01N 29°47' W 092°10'0 0.0
2018-Jun-16 03:31N 29°47' W 092°10'0 0.0
2018-Jun-16 03:01N 29°47' W 092°10'0 0.0
2018-Jun-16 02:31N 29°47' W 092°10'2 4.3
2018-Jun-16 02:00N 29°47' W 092°08'3 6.6
2018-Jun-16 01:30N 29°48' W 092°04'4 6.5
2018-Jun-16 00:54N 29°50' W 092°00'5 0.7
2018-Jun-15 18:23N 29°51' W 091°55'3 7.3
2018-Jun-15 18:01N 29°50' W 091°58'4 7.5
2018-Jun-15 17:30N 29°49' W 092°02'4 7.9
2018-Jun-15 17:01N 29°48' W 092°06'4 7.2
2018-Jun-15 16:30N 29°47' W 092°10'1 2.0
2018-Jun-15 16:01N 29°47' W 092°09'3 6.2
2018-Jun-15 15:31N 29°48' W 092°06'10 2.3
2018-Jun-15 11:03N 29°51' W 091°54'0 7.1
2018-Jun-15 11:00N 29°51' W 091°55'4 7.3
2018-Jun-15 10:31N 29°50' W 091°59'4 7.3
2018-Jun-15 10:00N 29°49' W 092°03'4 7.5
2018-Jun-15 09:31N 29°48' W 092°07'4 7.3
2018-Jun-15 09:00N 29°47' W 092°11'0 0.5
2018-Jun-15 08:31N 29°47' W 092°11'0 0.0
2018-Jun-15 08:01N 29°47' W 092°11'0 0.0
2018-Jun-15 07:31N 29°47' W 092°11'0 0.0
2018-Jun-15 07:01N 29°47' W 092°11'0 0.0
2018-Jun-15 06:31N 29°47' W 092°11'0 0.0
2018-Jun-15 06:01N 29°47' W 092°11'0 0.0
2018-Jun-15 05:31N 29°47' W 092°11'0 0.0
2018-Jun-15 05:01N 29°47' W 092°11'0 0.0
2018-Jun-15 04:31N 29°47' W 092°11'0 0.0
2018-Jun-15 04:01N 29°47' W 092°11'0 0.0
2018-Jun-15 03:31N 29°47' W 092°11'0 0.0
2018-Jun-15 03:01N 29°47' W 092°11'0 0.0
2018-Jun-15 02:31N 29°47' W 092°11'0 0.0
2018-Jun-15 02:01N 29°47' W 092°11'0 0.0
2018-Jun-15 01:30N 29°47' W 092°11'0 0.0
2018-Jun-15 01:00N 29°47' W 092°11'0 0.0
2018-Jun-15 00:31N 29°47' W 092°11'0 0.0
2018-Jun-15 00:01N 29°47' W 092°11'0 0.0
2018-Jun-14 23:31N 29°47' W 092°11'0 0.0
2018-Jun-14 23:01N 29°47' W 092°11'0 0.0
2018-Jun-14 22:31N 29°47' W 092°11'0 0.0
2018-Jun-14 22:01N 29°47' W 092°11'0 0.0
2018-Jun-14 21:31N 29°47' W 092°11'0 0.0
2018-Jun-14 21:01N 29°47' W 092°11'0 0.0
2018-Jun-14 20:30N 29°47' W 092°11'0 0.0
2018-Jun-14 20:01N 29°47' W 092°11'0 0.0
2018-Jun-14 19:31N 29°47' W 092°11'0 0.0
2018-Jun-14 19:01N 29°47' W 092°11'0 0.0
2018-Jun-14 18:31N 29°47' W 092°11'0 0.0
2018-Jun-14 18:00N 29°47' W 092°11'0 0.0
2018-Jun-14 17:31N 29°47' W 092°11'0 0.0
2018-Jun-14 17:01N 29°47' W 092°11'0 0.0
2018-Jun-14 16:31N 29°47' W 092°11'0 0.0
2018-Jun-14 16:01N 29°47' W 092°11'0 0.0
2018-Jun-14 15:31N 29°47' W 092°11'0 0.0
2018-Jun-14 15:01N 29°47' W 092°11'0 0.0
2018-Jun-14 14:31N 29°47' W 092°11'0 0.0
2018-Jun-14 14:01N 29°47' W 092°11'1 1.2
2018-Jun-14 13:31N 29°47' W 092°11'0 0.5
2018-Jun-14 13:00N 29°47' W 092°10'1 1.7
2018-Jun-14 12:30N 29°47' W 092°11'0 0.0
2018-Jun-14 12:00N 29°47' W 092°11'0 0.0
2018-Jun-14 11:30N 29°47' W 092°11'0 0.0
2018-Jun-14 10:58N 29°47' W 092°11'0 0.0
2018-Jun-14 10:29N 29°47' W 092°11'0 0.0
2018-Jun-14 10:01N 29°47' W 092°11'0 0.0
2018-Jun-14 09:30N 29°47' W 092°11'0 0.0
2018-Jun-14 08:59N 29°47' W 092°11'0 0.0
2018-Jun-14 08:30N 29°47' W 092°11'0 0.0
2018-Jun-14 08:00N 29°47' W 092°11'0 0.0
2018-Jun-14 07:30N 29°47' W 092°11'0 0.0
2018-Jun-14 07:00N 29°47' W 092°11'0 0.0
2018-Jun-14 06:26N 29°47' W 092°11'0 0.0
2018-Jun-14 06:00N 29°47' W 092°11'0 0.0
2018-Jun-14 05:30N 29°47' W 092°11'0 0.0
2018-Jun-14 05:00N 29°47' W 092°11'0 0.0
2018-Jun-14 04:31N 29°47' W 092°11'0 0.0
2018-Jun-14 04:01N 29°47' W 092°11'0 0.0
2018-Jun-14 03:28N 29°47' W 092°11'0 0.0
2018-Jun-14 03:00N 29°47' W 092°11'0 0.0
2018-Jun-14 02:31N 29°47' W 092°11'0 0.0
2018-Jun-14 02:01N 29°47' W 092°11'0 0.0
2018-Jun-14 01:31N 29°47' W 092°11'0 0.0
2018-Jun-14 00:59N 29°47' W 092°11'0 0.0
2018-Jun-14 00:31N 29°47' W 092°11'0 0.0
2018-Jun-14 00:01N 29°47' W 092°11'2 3.4
2018-Jun-13 23:31N 29°47' W 092°09'3 5.2
2018-Jun-13 23:01N 29°49' W 092°08'2 3.5
2018-Jun-13 22:30N 29°48' W 092°08'2 4.0
2018-Jun-13 22:00N 29°47' W 092°10'1 1.5
2018-Jun-13 21:31N 29°47' W 092°11'0 0.0
2018-Jun-13 21:00N 29°47' W 092°11'0 0.0
2018-Jun-13 20:31N 29°47' W 092°11'0 0.0
2018-Jun-13 20:00N 29°47' W 092°11'0 0.0
2018-Jun-13 19:31N 29°47' W 092°11'0 0.0
2018-Jun-13 19:00N 29°47' W 092°11'0 0.5
2018-Jun-13 18:31N 29°47' W 092°11'0 0.8
2018-Jun-13 18:00N 29°47' W 092°11'1 1.2
2018-Jun-13 17:31N 29°47' W 092°11'0 0.0
2018-Jun-13 17:01N 29°47' W 092°11'0 0.0
2018-Jun-13 16:31N 29°47' W 092°11'0 0.0
2018-Jun-13 16:01N 29°47' W 092°11'0 0.0
2018-Jun-13 15:31N 29°47' W 092°11'0 0.0
2018-Jun-13 15:01N 29°47' W 092°11'0 0.0
2018-Jun-13 14:31N 29°47' W 092°11'0 0.0
2018-Jun-13 14:00N 29°47' W 092°11'0 0.0
2018-Jun-13 13:30N 29°47' W 092°11'0 0.0
2018-Jun-13 12:59N 29°47' W 092°11'0 0.0
2018-Jun-13 12:30N 29°47' W 092°11'0 0.0
2018-Jun-13 11:59N 29°47' W 092°11'0 0.0
2018-Jun-13 11:31N 29°47' W 092°11'0 0.0
2018-Jun-13 11:01N 29°47' W 092°11'0 0.0
2018-Jun-13 10:31N 29°47' W 092°11'0 0.0
2018-Jun-13 10:01N 29°47' W 092°11'0 0.0
2018-Jun-13 09:31N 29°47' W 092°11'0 0.0
2018-Jun-13 09:01N 29°47' W 092°11'0 0.0
2018-Jun-13 08:30N 29°47' W 092°11'0 0.0
2018-Jun-13 08:00N 29°47' W 092°11'0 0.0
2018-Jun-13 07:31N 29°47' W 092°11'0 0.0
2018-Jun-13 07:00N 29°47' W 092°11'0 0.0
2018-Jun-13 06:31N 29°47' W 092°11'0 0.0
2018-Jun-13 06:00N 29°47' W 092°11'0 0.0
2018-Jun-13 05:30N 29°47' W 092°11'0 0.0
2018-Jun-13 05:01N 29°47' W 092°11'0 0.0
2018-Jun-13 04:31N 29°47' W 092°11'0 0.0
2018-Jun-13 04:00N 29°47' W 092°11'0 0.0
2018-Jun-13 03:29N 29°47' W 092°11'0 0.0
2018-Jun-13 03:01N 29°47' W 092°11'0 0.0
2018-Jun-13 02:29N 29°47' W 092°11'0 0.0
2018-Jun-13 02:01N 29°47' W 092°11'0 0.0
2018-Jun-13 01:30N 29°47' W 092°11'0 0.0
2018-Jun-13 01:00N 29°47' W 092°11'0 0.0
2018-Jun-13 00:31N 29°47' W 092°11'0 0.0
2018-Jun-13 00:00N 29°47' W 092°11'0 0.0
2018-Jun-12 23:31N 29°47' W 092°11'0 0.2
2018-Jun-12 23:00N 29°47' W 092°11'0 0.1
2018-Jun-12 22:27N 29°47' W 092°11'0 0.0
2018-Jun-12 22:00N 29°47' W 092°11'0 0.0
2018-Jun-12 21:31N 29°47' W 092°11'0 0.0
2018-Jun-12 21:00N 29°47' W 092°11'1 1.5
2018-Jun-12 20:30N 29°47' W 092°10'0 0.3
2018-Jun-12 20:01N 29°47' W 092°10'1 1.4
2018-Jun-12 19:30N 29°47' W 092°11'0 0.9
2018-Jun-12 19:00N 29°47' W 092°11'0 0.5
2018-Jun-12 18:30N 29°47' W 092°10'1 1.5
2018-Jun-12 18:01N 29°47' W 092°11'0 0.0
2018-Jun-12 17:30N 29°47' W 092°11'0 0.0
2018-Jun-12 17:00N 29°47' W 092°11'0 0.0
2018-Jun-12 16:31N 29°47' W 092°11'0 0.0
2018-Jun-12 15:59N 29°47' W 092°11'1 1.9
2018-Jun-12 15:30N 29°47' W 092°10'0 0.3
2018-Jun-12 15:00N 29°47' W 092°10'0 0.1
2018-Jun-12 14:31N 29°47' W 092°10'3 6.6
2018-Jun-12 14:00N 29°45' W 092°13'1 1.9
2018-Jun-12 13:30N 29°44' W 092°14'4 7.0
2018-Jun-12 13:00N 29°46' W 092°11'1 1.7
2018-Jun-12 12:31N 29°47' W 092°10'0 0.0
2018-Jun-12 12:01N 29°47' W 092°10'0 0.0
2018-Jun-12 11:30N 29°47' W 092°10'0 0.0
2018-Jun-12 11:01N 29°47' W 092°10'0 0.0
2018-Jun-12 10:30N 29°47' W 092°10'0 0.0
2018-Jun-12 10:00N 29°47' W 092°10'0 0.0
2018-Jun-12 09:31N 29°47' W 092°10'0 0.0
2018-Jun-12 09:01N 29°47' W 092°10'0 0.0
2018-Jun-12 08:31N 29°47' W 092°10'0 0.0
2018-Jun-12 08:01N 29°47' W 092°10'0 0.0
2018-Jun-12 07:31N 29°47' W 092°10'0 0.0
2018-Jun-12 07:01N 29°47' W 092°10'0 0.0
2018-Jun-12 06:31N 29°47' W 092°10'0 0.0
2018-Jun-12 06:00N 29°47' W 092°10'0 0.0
2018-Jun-12 05:31N 29°47' W 092°10'0 0.0
2018-Jun-12 05:01N 29°47' W 092°10'0 0.0
2018-Jun-12 04:31N 29°47' W 092°10'0 0.0
2018-Jun-12 04:00N 29°47' W 092°10'0 0.0
2018-Jun-12 03:31N 29°47' W 092°10'0 0.0
2018-Jun-12 03:01N 29°47' W 092°10'0 0.0
2018-Jun-12 02:30N 29°47' W 092°10'0 0.0
2018-Jun-12 02:01N 29°47' W 092°10'0 0.0
2018-Jun-12 01:31N 29°47' W 092°10'0 0.0
2018-Jun-12 01:00N 29°47' W 092°10'0 0.0
2018-Jun-12 00:31N 29°47' W 092°10'0 0.0
2018-Jun-12 00:01N 29°47' W 092°10'0 0.0
2018-Jun-11 23:31N 29°47' W 092°10'0 0.0
2018-Jun-11 23:01N 29°47' W 092°10'0 0.5
2018-Jun-11 22:30N 29°47' W 092°11'0 0.5
2018-Jun-11 22:01N 29°47' W 092°10'0 0.0
2018-Jun-11 21:30N 29°47' W 092°10'0 0.0
2018-Jun-11 21:00N 29°47' W 092°10'0 0.0
2018-Jun-11 20:30N 29°47' W 092°10'0 0.0
2018-Jun-11 20:01N 29°47' W 092°10'0 0.0
2018-Jun-11 19:31N 29°47' W 092°10'0 0.0
2018-Jun-11 19:01N 29°47' W 092°10'0 0.0
2018-Jun-11 18:31N 29°47' W 092°10'0 0.0
2018-Jun-11 18:00N 29°47' W 092°10'0 0.0
2018-Jun-11 17:31N 29°47' W 092°10'  

Dump ship's entire track history